Terminal Aerodrome Forecast
Issued by NWS

Home | Current Version | Previous Version | Text Only | Print | Product List | Glossary On
Versions: 1 2 3 4 5 6 7 8 9 10 11 12 13 14 15 16
000
FTUS42 KILM 201100
TAFCRE
TAF
KCRE 201120Z 2012/2112 VRB04KT P6SM SKC
     FM201600 16006KT P6SM SCT040
     FM202200 VRB03KT P6SM BKN040
     FM210400 VRB02KT P6SM VCSH SCT040=

USA.gov is the U.S. government's official web portal to all federal, state and local government web resources and services.